sensor_id;sensor_type;location;lat;lon;timestamp;pressure;altitude;pressure_sealevel;temperature;humidity
40013;BME280;37387;42.672;23.334;2023-04-25T00:07:33;936.7;;;10.4;100.0
40013;BME280;37387;42.672;23.334;2023-04-25T00:12:32;936.5;;;10.3;100.0
40013;BME280;37387;42.672;23.334;2023-04-25T00:13:32;936.5;;;10.2;100.0
40013;BME280;37387;42.672;23.334;2023-04-25T00:19:32;936.2;;;10.1;100.0
40013;BME280;37387;42.672;23.334;2023-04-25T00:25:32;936.2;;;10.2;100.0
40013;BME280;37387;42.672;23.334;2023-04-25T00:26:33;936.2;;;10.1;100.0
40013;BME280;37387;42.672;23.334;2023-04-25T00:43:32;936.1;;;10.0;100.0
40013;BME280;37387;42.672;23.334;2023-04-25T00:44:32;936.1;;;10.1;100.0
40013;BME280;37387;42.672;23.334;2023-04-25T00:45:32;936.1;;;10.0;100.0
40013;BME280;37387;42.672;23.334;2023-04-25T00:48:32;936.1;;;9.9;100.0
40013;BME280;37387;42.672;23.334;2023-04-25T00:52:32;936.2;;;10.0;100.0
40013;BME280;37387;42.672;23.334;2023-04-25T00:58:32;936.1;;;10.1;100.0
40013;BME280;37387;42.672;23.334;2023-04-25T00:59:32;936.1;;;10.0;100.0
40013;BME280;37387;42.672;23.334;2023-04-25T01:01:32;936.2;;;10.1;100.0
40013;BME280;37387;42.672;23.334;2023-04-25T01:04:32;936.2;;;10.2;100.0
40013;BME280;37387;42.672;23.334;2023-04-25T01:10:32;935.9;;;10.1;100.0
40013;BME280;37387;42.672;23.334;2023-04-25T01:12:33;935.9;;;10.0;100.0
40013;BME280;37387;42.672;23.334;2023-04-25T01:16:32;935.8;;;9.9;100.0
40013;BME280;37387;42.672;23.334;2023-04-25T01:21:32;935.8;;;10.0;100.0
40013;BME280;37387;42.672;23.334;2023-04-25T01:28:33;935.8;;;9.9;100.0
40013;BME280;37387;42.672;23.334;2023-04-25T01:31:32;935.7;;;9.8;100.0
40013;BME280;37387;42.672;23.334;2023-04-25T01:33:33;935.7;;;9.9;100.0
40013;BME280;37387;42.672;23.334;2023-04-25T01:38:32;935.8;;;9.8;100.0
40013;BME280;37387;42.672;23.334;2023-04-25T01:42:32;935.8;;;9.7;100.0
40013;BME280;37387;42.672;23.334;2023-04-25T01:54:32;935.9;;;9.6;100.0
40013;BME280;37387;42.672;23.334;2023-04-25T02:02:32;936.0;;;9.7;100.0
40013;BME280;37387;42.672;23.334;2023-04-25T02:03:33;935.9;;;9.6;100.0
40013;BME280;37387;42.672;23.334;2023-04-25T02:19:32;935.8;;;9.7;100.0
40013;BME280;37387;42.672;23.334;2023-04-25T02:20:32;935.8;;;9.6;100.0
40013;BME280;37387;42.672;23.334;2023-04-25T02:23:32;935.6;;;9.5;100.0
40013;BME280;37387;42.672;23.334;2023-04-25T02:34:32;935.5;;;9.4;100.0
40013;BME280;37387;42.672;23.334;2023-04-25T02:37:33;935.4;;;9.3;100.0
40013;BME280;37387;42.672;23.334;2023-04-25T02:39:32;935.4;;;9.4;100.0
40013;BME280;37387;42.672;23.334;2023-04-25T02:41:32;935.4;;;9.3;100.0
40013;BME280;37387;42.672;23.334;2023-04-25T02:44:32;935.4;;;9.2;100.0
40013;BME280;37387;42.672;23.334;2023-04-25T02:48:32;935.5;;;9.3;100.0
40013;BME280;37387;42.672;23.334;2023-04-25T02:50:32;935.4;;;9.2;100.0
40013;BME280;37387;42.672;23.334;2023-04-25T02:52:32;935.3;;;9.3;100.0
40013;BME280;37387;42.672;23.334;2023-04-25T02:55:32;935.3;;;9.2;100.0
40013;BME280;37387;42.672;23.334;2023-04-25T02:56:32;935.2;;;9.1;100.0
40013;BME280;37387;42.672;23.334;2023-04-25T02:57:32;935.2;;;9.0;100.0
40013;BME280;37387;42.672;23.334;2023-04-25T02:58:32;935.2;;;9.1;100.0
40013;BME280;37387;42.672;23.334;2023-04-25T02:59:32;935.3;;;9.0;100.0
40013;BME280;37387;42.672;23.334;2023-04-25T03:05:32;935.3;;;9.1;100.0
40013;BME280;37387;42.672;23.334;2023-04-25T03:07:32;935.2;;;9.0;100.0
40013;BME280;37387;42.672;23.334;2023-04-25T03:11:32;935.2;;;9.1;100.0
40013;BME280;37387;42.672;23.334;2023-04-25T03:12:32;935.2;;;9.0;100.0
40013;BME280;37387;42.672;23.334;2023-04-25T03:15:32;935.2;;;8.9;100.0
40013;BME280;37387;42.672;23.334;2023-04-25T03:16:32;935.2;;;9.0;100.0
40013;BME280;37387;42.672;23.334;2023-04-25T03:20:32;935.3;;;9.1;100.0
40013;BME280;37387;42.672;23.334;2023-04-25T03:21:33;935.2;;;9.0;100.0
40013;BME280;37387;42.672;23.334;2023-04-25T03:24:32;935.3;;;9.1;100.0
40013;BME280;37387;42.672;23.334;2023-04-25T03:26:32;935.3;;;8.9;100.0
40013;BME280;37387;42.672;23.334;2023-04-25T03:27:32;935.1;;;9.1;100.0
40013;BME280;37387;42.672;23.334;2023-04-25T03:29:32;935.3;;;9.2;100.0
40013;BME280;37387;42.672;23.334;2023-04-25T03:35:32;935.2;;;9.3;100.0
40013;BME280;37387;42.672;23.334;2023-04-25T03:39:32;935.2;;;9.2;100.0
40013;BME280;37387;42.672;23.334;2023-04-25T03:40:32;935.2;;;9.3;100.0
40013;BME280;37387;42.672;23.334;2023-04-25T03:44:32;935.3;;;9.2;100.0
40013;BME280;37387;42.672;23.334;2023-04-25T03:48:32;935.2;;;9.3;100.0
40013;BME280;37387;42.672;23.334;2023-04-25T03:51:32;935.3;;;9.4;100.0
40013;BME280;37387;42.672;23.334;2023-04-25T03:56:32;935.2;;;9.5;100.0
40013;BME280;37387;42.672;23.334;2023-04-25T03:57:32;935.2;;;9.6;100.0
40013;BME280;37387;42.672;23.334;2023-04-25T03:58:32;935.2;;;9.7;100.0
40013;BME280;37387;42.672;23.334;2023-04-25T03:59:32;935.2;;;9.6;100.0
40013;BME280;37387;42.672;23.334;2023-04-25T04:00:32;935.2;;;9.7;100.0
40013;BME280;37387;42.672;23.334;2023-04-25T04:03:33;935.2;;;9.8;100.0
40013;BME280;37387;42.672;23.334;2023-04-25T04:04:32;935.2;;;9.9;100.0
40013;BME280;37387;42.672;23.334;2023-04-25T04:07:32;935.3;;;10.0;100.0
40013;BME280;37387;42.672;23.334;2023-04-25T04:08:32;935.3;;;10.1;100.0
40013;BME280;37387;42.672;23.334;2023-04-25T04:09:32;935.4;;;10.3;100.0
40013;BME280;37387;42.672;23.334;2023-04-25T04:10:32;935.4;;;10.7;100.0
40013;BME280;37387;42.672;23.334;2023-04-25T04:11:32;935.3;;;11.3;100.0
40013;BME280;37387;42.672;23.334;2023-04-25T04:12:32;935.3;;;11.5;100.0
40013;BME280;37387;42.672;23.334;2023-04-25T04:13:32;935.4;;;11.8;100.0
40013;BME280;37387;42.672;23.334;2023-04-25T04:14:32;935.4;;;12.2;100.0
40013;BME280;37387;42.672;23.334;2023-04-25T04:15:32;935.4;;;12.4;100.0
40013;BME280;37387;42.672;23.334;2023-04-25T04:17:33;935.5;;;12.1;100.0
40013;BME280;37387;42.672;23.334;2023-04-25T04:18:32;935.4;;;11.9;100.0
40013;BME280;37387;42.672;23.334;2023-04-25T04:19:32;935.4;;;11.6;100.0
40013;BME280;37387;42.672;23.334;2023-04-25T04:20:32;935.5;;;11.5;100.0
40013;BME280;37387;42.672;23.334;2023-04-25T04:21:32;935.5;;;11.4;100.0
40013;BME280;37387;42.672;23.334;2023-04-25T04:23:32;935.5;;;11.3;100.0
40013;BME280;37387;42.672;23.334;2023-04-25T04:24:32;935.4;;;11.1;100.0
40013;BME280;37387;42.672;23.334;2023-04-25T04:25:32;935.4;;;11.2;100.0
40013;BME280;37387;42.672;23.334;2023-04-25T04:26:32;935.4;;;11.4;100.0
40013;BME280;37387;42.672;23.334;2023-04-25T04:27:32;935.4;;;11.9;100.0
40013;BME280;37387;42.672;23.334;2023-04-25T04:28:32;935.5;;;12.0;100.0
40013;BME280;37387;42.672;23.334;2023-04-25T04:29:32;935.5;;;12.4;100.0
40013;BME280;37387;42.672;23.334;2023-04-25T04:30:33;935.4;;;12.5;100.0
40013;BME280;37387;42.672;23.334;2023-04-25T04:31:32;935.4;;;12.2;100.0
40013;BME280;37387;42.672;23.334;2023-04-25T04:32:32;935.4;;;12.1;100.0
40013;BME280;37387;42.672;23.334;2023-04-25T04:33:32;935.5;;;11.8;100.0
40013;BME280;37387;42.672;23.334;2023-04-25T04:34:32;935.5;;;11.6;100.0
40013;BME280;37387;42.672;23.334;2023-04-25T04:35:32;935.5;;;11.4;100.0
40013;BME280;37387;42.672;23.334;2023-04-25T04:36:32;935.4;;;11.5;100.0
40013;BME280;37387;42.672;23.334;2023-04-25T04:37:32;935.4;;;11.3;100.0
40013;BME280;37387;42.672;23.334;2023-04-25T04:38:32;935.4;;;11.1;100.0
40013;BME280;37387;42.672;23.334;2023-04-25T04:39:32;935.4;;;11.0;100.0
40013;BME280;37387;42.672;23.334;2023-04-25T04:41:32;935.4;;;11.1;100.0
40013;BME280;37387;42.672;23.334;2023-04-25T04:43:32;935.5;;;11.0;100.0
40013;BME280;37387;42.672;23.334;2023-04-25T04:46:32;935.4;;;11.1;100.0
40013;BME280;37387;42.672;23.334;2023-04-25T04:51:32;935.5;;;11.2;100.0
40013;BME280;37387;42.672;23.334;2023-04-25T04:54:32;935.5;;;11.1;100.0
40013;BME280;37387;42.672;23.334;2023-04-25T04:55:32;935.5;;;11.0;100.0
40013;BME280;37387;42.672;23.334;2023-04-25T04:58:32;935.6;;;11.1;100.0
40013;BME280;37387;42.672;23.334;2023-04-25T05:00:32;935.7;;;11.0;100.0
40013;BME280;37387;42.672;23.334;2023-04-25T05:02:32;935.7;;;11.1;100.0
40013;BME280;37387;42.672;23.334;2023-04-25T05:05:32;935.7;;;11.0;100.0
40013;BME280;37387;42.672;23.334;2023-04-25T05:09:32;935.8;;;11.1;100.0
40013;BME280;37387;42.672;23.334;2023-04-25T05:10:32;935.8;;;11.2;100.0
40013;BME280;37387;42.672;23.334;2023-04-25T05:12:32;935.8;;;11.4;100.0
40013;BME280;37387;42.672;23.334;2023-04-25T05:13:32;935.8;;;11.2;100.0
40013;BME280;37387;42.672;23.334;2023-04-25T05:15:32;935.8;;;11.3;100.0
40013;BME280;37387;42.672;23.334;2023-04-25T05:19:32;935.8;;;11.2;100.0
40013;BME280;37387;42.672;23.334;2023-04-25T05:22:32;935.8;;;11.1;100.0
40013;BME280;37387;42.672;23.334;2023-04-25T05:23:32;935.8;;;11.0;100.0
40013;BME280;37387;42.672;23.334;2023-04-25T05:26:32;935.8;;;10.8;100.0
40013;BME280;37387;42.672;23.334;2023-04-25T05:28:32;935.6;;;10.7;100.0
40013;BME280;37387;42.672;23.334;2023-04-25T05:29:32;935.5;;;10.6;100.0
40013;BME280;37387;42.672;23.334;2023-04-25T05:32:32;935.7;;;10.7;100.0
40013;BME280;37387;42.672;23.334;2023-04-25T05:33:32;935.7;;;10.8;100.0
40013;BME280;37387;42.672;23.334;2023-04-25T05:34:32;935.7;;;10.9;100.0
40013;BME280;37387;42.672;23.334;2023-04-25T05:37:32;935.7;;;11.0;100.0
40013;BME280;37387;42.672;23.334;2023-04-25T05:38:32;935.7;;;11.1;100.0
40013;BME280;37387;42.672;23.334;2023-04-25T05:42:32;935.8;;;11.2;100.0
40013;BME280;37387;42.672;23.334;2023-04-25T05:43:32;935.8;;;11.3;100.0
40013;BME280;37387;42.672;23.334;2023-04-25T05:44:32;935.8;;;11.4;100.0
40013;BME280;37387;42.672;23.334;2023-04-25T05:45:32;935.8;;;11.2;100.0
40013;BME280;37387;42.672;23.334;2023-04-25T05:47:32;935.7;;;11.3;100.0
40013;BME280;37387;42.672;23.334;2023-04-25T05:50:32;935.7;;;11.4;100.0
40013;BME280;37387;42.672;23.334;2023-04-25T05:51:32;935.7;;;11.6;100.0
40013;BME280;37387;42.672;23.334;2023-04-25T05:52:32;935.8;;;11.7;100.0
40013;BME280;37387;42.672;23.334;2023-04-25T05:53:32;935.8;;;11.8;100.0
40013;BME280;37387;42.672;23.334;2023-04-25T05:55:32;935.8;;;11.9;100.0
40013;BME280;37387;42.672;23.334;2023-04-25T05:56:32;935.8;;;12.0;100.0
40013;BME280;37387;42.672;23.334;2023-04-25T05:57:32;935.8;;;12.1;100.0
40013;BME280;37387;42.672;23.334;2023-04-25T06:00:32;935.8;;;12.2;100.0
40013;BME280;37387;42.672;23.334;2023-04-25T06:01:32;935.8;;;11.9;100.0
40013;BME280;37387;42.672;23.334;2023-04-25T06:02:32;935.8;;;12.0;100.0
40013;BME280;37387;42.672;23.334;2023-04-25T06:03:32;935.8;;;12.2;100.0
40013;BME280;37387;42.672;23.334;2023-04-25T06:04:32;935.8;;;12.1;100.0
40013;BME280;37387;42.672;23.334;2023-04-25T06:06:32;935.8;;;12.3;100.0
40013;BME280;37387;42.672;23.334;2023-04-25T06:07:32;935.8;;;12.4;100.0
40013;BME280;37387;42.672;23.334;2023-04-25T06:08:32;935.8;;;12.3;100.0
40013;BME280;37387;42.672;23.334;2023-04-25T06:09:32;935.8;;;12.4;100.0
40013;BME280;37387;42.672;23.334;2023-04-25T06:10:32;935.8;;;12.6;100.0
40013;BME280;37387;42.672;23.334;2023-04-25T06:11:32;935.8;;;12.7;100.0
40013;BME280;37387;42.672;23.334;2023-04-25T06:12:32;935.8;;;12.4;100.0
40013;BME280;37387;42.672;23.334;2023-04-25T06:13:32;935.8;;;12.6;100.0
40013;BME280;37387;42.672;23.334;2023-04-25T06:14:32;935.8;;;12.0;100.0
40013;BME280;37387;42.672;23.334;2023-04-25T06:15:32;935.8;;;12.1;100.0
40013;BME280;37387;42.672;23.334;2023-04-25T06:16:32;935.8;;;12.2;100.0
40013;BME280;37387;42.672;23.334;2023-04-25T06:17:32;935.8;;;12.0;100.0
40013;BME280;37387;42.672;23.334;2023-04-25T06:18:32;935.8;;;12.3;100.0
40013;BME280;37387;42.672;23.334;2023-04-25T06:19:32;935.8;;;12.2;100.0
40013;BME280;37387;42.672;23.334;2023-04-25T06:20:32;935.8;;;12.7;100.0
40013;BME280;37387;42.672;23.334;2023-04-25T06:21:32;935.8;;;13.2;100.0
40013;BME280;37387;42.672;23.334;2023-04-25T06:22:32;935.9;;;13.3;100.0
40013;BME280;37387;42.672;23.334;2023-04-25T06:23:32;935.9;;;12.8;100.0
40013;BME280;37387;42.672;23.334;2023-04-25T06:24:33;935.8;;;12.4;100.0
40013;BME280;37387;42.672;23.334;2023-04-25T06:25:32;935.8;;;12.6;100.0
40013;BME280;37387;42.672;23.334;2023-04-25T06:26:32;935.9;;;12.5;100.0
40013;BME280;37387;42.672;23.334;2023-04-25T06:27:32;936.0;;;12.7;100.0
40013;BME280;37387;42.672;23.334;2023-04-25T06:28:32;936.0;;;12.8;100.0
40013;BME280;37387;42.672;23.334;2023-04-25T06:30:32;936.0;;;13.0;100.0
40013;BME280;37387;42.672;23.334;2023-04-25T06:31:32;936.0;;;13.1;100.0
40013;BME280;37387;42.672;23.334;2023-04-25T06:32:32;936.0;;;13.3;100.0
40013;BME280;37387;42.672;23.334;2023-04-25T06:33:32;936.0;;;13.5;100.0
40013;BME280;37387;42.672;23.334;2023-04-25T06:34:32;936.0;;;13.9;100.0
40013;BME280;37387;42.672;23.334;2023-04-25T06:35:32;936.0;;;14.2;100.0
40013;BME280;37387;42.672;23.334;2023-04-25T06:36:32;936.0;;;14.5;100.0
40013;BME280;37387;42.672;23.334;2023-04-25T06:37:32;936.0;;;15.2;100.0
40013;BME280;37387;42.672;23.334;2023-04-25T06:38:32;936.1;;;15.5;100.0
40013;BME280;37387;42.672;23.334;2023-04-25T06:39:32;936.1;;;15.8;100.0
40013;BME280;37387;42.672;23.334;2023-04-25T06:40:32;936.1;;;16.5;100.0
40013;BME280;37387;42.672;23.334;2023-04-25T06:41:32;936.1;;;17.0;100.0
40013;BME280;37387;42.672;23.334;2023-04-25T06:42:32;936.1;;;17.2;100.0
40013;BME280;37387;42.672;23.334;2023-04-25T06:43:32;936.1;;;17.1;98.3
40013;BME280;37387;42.672;23.334;2023-04-25T06:45:32;936.2;;;17.5;100.0
40013;BME280;37387;42.672;23.334;2023-04-25T06:46:32;936.2;;;17.2;89.1
40013;BME280;37387;42.672;23.334;2023-04-25T06:47:32;936.2;;;16.8;89.1
40013;BME280;37387;42.672;23.334;2023-04-25T06:48:32;936.2;;;16.0;94.0
40013;BME280;37387;42.672;23.334;2023-04-25T06:49:32;936.2;;;16.5;100.0
40013;BME280;37387;42.672;23.334;2023-04-25T06:50:33;936.2;;;17.5;99.1
40013;BME280;37387;42.672;23.334;2023-04-25T06:51:32;936.2;;;17.9;88.9
40013;BME280;37387;42.672;23.334;2023-04-25T06:52:32;936.3;;;17.8;79.7
40013;BME280;37387;42.672;23.334;2023-04-25T06:53:32;936.3;;;17.0;79.7
40013;BME280;37387;42.672;23.334;2023-04-25T06:54:32;936.2;;;16.9;85.5
40013;BME280;37387;42.672;23.334;2023-04-25T06:55:32;936.2;;;16.8;91.1
40013;BME280;37387;42.672;23.334;2023-04-25T06:56:32;936.2;;;16.0;91.3
40013;BME280;37387;42.672;23.334;2023-04-25T06:57:32;936.2;;;16.1;94.4
40013;BME280;37387;42.672;23.334;2023-04-25T06:58:32;936.2;;;15.4;94.4
40013;BME280;37387;42.672;23.334;2023-04-25T06:59:32;936.2;;;15.3;98.7
40013;BME280;37387;42.672;23.334;2023-04-25T07:01:32;936.2;;;16.0;100.0
40013;BME280;37387;42.672;23.334;2023-04-25T07:02:32;936.2;;;16.8;100.0
40013;BME280;37387;42.672;23.334;2023-04-25T07:03:32;936.2;;;17.6;79.9
40013;BME280;37387;42.672;23.334;2023-04-25T07:05:32;936.2;;;17.4;77.1
40013;BME280;37387;42.672;23.334;2023-04-25T07:06:32;936.2;;;17.3;77.1
40013;BME280;37387;42.672;23.334;2023-04-25T07:07:32;936.2;;;17.1;82.0
40013;BME280;37387;42.672;23.334;2023-04-25T07:08:32;936.2;;;16.7;85.5
40013;BME280;37387;42.672;23.334;2023-04-25T07:09:32;936.2;;;16.6;88.9
40013;BME280;37387;42.672;23.334;2023-04-25T07:10:32;936.2;;;16.4;88.9
40013;BME280;37387;42.672;23.334;2023-04-25T07:11:32;936.2;;;16.2;89.6
40013;BME280;37387;42.672;23.334;2023-04-25T07:12:32;936.2;;;16.0;90.2
40013;BME280;37387;42.672;23.334;2023-04-25T07:13:32;936.2;;;15.7;90.2
40013;BME280;37387;42.672;23.334;2023-04-25T07:14:32;936.2;;;15.2;93.9
40013;BME280;37387;42.672;23.334;2023-04-25T07:15:32;936.2;;;15.1;100.0
40013;BME280;37387;42.672;23.334;2023-04-25T07:16:32;936.2;;;14.8;100.0
40013;BME280;37387;42.672;23.334;2023-04-25T07:17:32;936.1;;;14.1;100.0
40013;BME280;37387;42.672;23.334;2023-04-25T07:18:32;936.2;;;14.2;100.0
40013;BME280;37387;42.672;23.334;2023-04-25T07:19:32;936.2;;;14.4;100.0
40013;BME280;37387;42.672;23.334;2023-04-25T07:21:32;936.1;;;13.9;100.0
40013;BME280;37387;42.672;23.334;2023-04-25T07:23:32;936.1;;;14.2;100.0
40013;BME280;37387;42.672;23.334;2023-04-25T07:26:32;936.1;;;14.3;100.0
40013;BME280;37387;42.672;23.334;2023-04-25T07:27:32;936.1;;;14.4;100.0
40013;BME280;37387;42.672;23.334;2023-04-25T07:28:32;936.1;;;14.5;100.0
40013;BME280;37387;42.672;23.334;2023-04-25T07:30:32;936.1;;;14.6;100.0
40013;BME280;37387;42.672;23.334;2023-04-25T07:32:32;936.0;;;14.8;100.0
40013;BME280;37387;42.672;23.334;2023-04-25T07:33:33;936.1;;;15.1;100.0
40013;BME280;37387;42.672;23.334;2023-04-25T07:34:32;936.1;;;15.3;100.0
40013;BME280;37387;42.672;23.334;2023-04-25T07:35:32;936.0;;;15.6;100.0
40013;BME280;37387;42.672;23.334;2023-04-25T07:36:32;936.1;;;16.0;97.6
40013;BME280;37387;42.672;23.334;2023-04-25T07:37:32;936.1;;;16.2;97.6
40013;BME280;37387;42.672;23.334;2023-04-25T07:38:32;936.1;;;16.3;95.7
40013;BME280;37387;42.672;23.334;2023-04-25T07:39:32;936.0;;;16.2;90.9
40013;BME280;37387;42.672;23.334;2023-04-25T07:40:32;936.0;;;16.1;90.4
40013;BME280;37387;42.672;23.334;2023-04-25T07:41:32;936.1;;;15.8;90.3
40013;BME280;37387;42.672;23.334;2023-04-25T07:42:32;936.0;;;15.5;93.9
40013;BME280;37387;42.672;23.334;2023-04-25T07:43:32;936.1;;;15.8;98.8
40013;BME280;37387;42.672;23.334;2023-04-25T07:44:32;936.1;;;15.9;98.8
40013;BME280;37387;42.672;23.334;2023-04-25T07:45:32;936.1;;;16.0;96.2
40013;BME280;37387;42.672;23.334;2023-04-25T07:46:32;936.1;;;15.8;96.2
40013;BME280;37387;42.672;23.334;2023-04-25T07:47:32;936.0;;;15.6;98.1
40013;BME280;37387;42.672;23.334;2023-04-25T07:48:32;936.1;;;15.3;97.2
40013;BME280;37387;42.672;23.334;2023-04-25T07:49:32;936.0;;;15.4;100.0
40013;BME280;37387;42.672;23.334;2023-04-25T07:50:32;936.0;;;15.7;100.0
40013;BME280;37387;42.672;23.334;2023-04-25T07:51:32;936.0;;;15.9;100.0
40013;BME280;37387;42.672;23.334;2023-04-25T07:52:32;936.0;;;15.4;100.0
40013;BME280;37387;42.672;23.334;2023-04-25T07:53:32;936.0;;;15.2;100.0
40013;BME280;37387;42.672;23.334;2023-04-25T07:54:32;936.0;;;14.8;100.0
40013;BME280;37387;42.672;23.334;2023-04-25T07:55:32;936.0;;;15.1;100.0
40013;BME280;37387;42.672;23.334;2023-04-25T07:56:32;936.0;;;14.9;100.0
40013;BME280;37387;42.672;23.334;2023-04-25T07:57:32;936.0;;;15.3;100.0
40013;BME280;37387;42.672;23.334;2023-04-25T07:58:32;936.0;;;15.4;100.0
40013;BME280;37387;42.672;23.334;2023-04-25T07:59:32;936.0;;;15.6;100.0
40013;BME280;37387;42.672;23.334;2023-04-25T08:01:33;936.0;;;15.2;99.4
40013;BME280;37387;42.672;23.334;2023-04-25T08:02:32;936.0;;;15.3;99.4
40013;BME280;37387;42.672;23.334;2023-04-25T08:03:32;936.0;;;15.4;100.0
40013;BME280;37387;42.672;23.334;2023-04-25T08:04:32;936.0;;;15.7;100.0
40013;BME280;37387;42.672;23.334;2023-04-25T08:06:32;936.0;;;16.1;92.6
40013;BME280;37387;42.672;23.334;2023-04-25T08:07:32;936.0;;;16.5;92.6
40013;BME280;37387;42.672;23.334;2023-04-25T08:08:32;936.0;;;16.8;84.9
40013;BME280;37387;42.672;23.334;2023-04-25T08:10:32;936.0;;;17.3;80.4
40013;BME280;37387;42.672;23.334;2023-04-25T08:11:32;936.0;;;18.1;75.8
40013;BME280;37387;42.672;23.334;2023-04-25T08:12:33;936.0;;;18.6;75.8
40013;BME280;37387;42.672;23.334;2023-04-25T08:13:32;935.9;;;18.4;72.2
40013;BME280;37387;42.672;23.334;2023-04-25T08:14:32;935.9;;;18.7;70.9
40013;BME280;37387;42.672;23.334;2023-04-25T08:15:32;936.0;;;18.5;71.0
40013;BME280;37387;42.672;23.334;2023-04-25T08:16:32;935.9;;;18.8;70.8
40013;BME280;37387;42.672;23.334;2023-04-25T08:17:32;935.9;;;19.2;66.4
40013;BME280;37387;42.672;23.334;2023-04-25T08:18:32;935.9;;;19.1;66.4
40013;BME280;37387;42.672;23.334;2023-04-25T08:19:32;936.0;;;18.9;63.3
40013;BME280;37387;42.672;23.334;2023-04-25T08:20:32;935.9;;;18.3;64.0
40013;BME280;37387;42.672;23.334;2023-04-25T08:21:32;935.9;;;18.1;67.7
40013;BME280;37387;42.672;23.334;2023-04-25T08:22:32;935.9;;;18.0;70.9
40013;BME280;37387;42.672;23.334;2023-04-25T08:23:32;935.8;;;17.6;68.3
40013;BME280;37387;42.672;23.334;2023-04-25T08:24:32;935.8;;;17.7;68.3
40013;BME280;37387;42.672;23.334;2023-04-25T08:25:32;935.8;;;18.0;68.1
40013;BME280;37387;42.672;23.334;2023-04-25T08:26:32;935.8;;;18.2;66.7
40013;BME280;37387;42.672;23.334;2023-04-25T08:27:32;935.8;;;18.4;66.7
40013;BME280;37387;42.672;23.334;2023-04-25T08:28:32;935.8;;;18.9;65.2
40013;BME280;37387;42.672;23.334;2023-04-25T08:29:33;935.8;;;19.3;64.6
40013;BME280;37387;42.672;23.334;2023-04-25T08:30:32;935.8;;;20.1;61.7
40013;BME280;37387;42.672;23.334;2023-04-25T08:31:32;935.8;;;21.3;58.8
40013;BME280;37387;42.672;23.334;2023-04-25T08:32:32;935.7;;;21.8;52.8
40013;BME280;37387;42.672;23.334;2023-04-25T08:33:32;935.7;;;21.3;52.8
40013;BME280;37387;42.672;23.334;2023-04-25T08:34:32;935.7;;;21.1;53.8
40013;BME280;37387;42.672;23.334;2023-04-25T08:35:32;935.8;;;20.2;54.9
40013;BME280;37387;42.672;23.334;2023-04-25T08:36:32;935.8;;;19.4;57.4
40013;BME280;37387;42.672;23.334;2023-04-25T08:37:32;935.8;;;19.2;57.1
40013;BME280;37387;42.672;23.334;2023-04-25T08:38:32;935.9;;;19.1;58.6
40013;BME280;37387;42.672;23.334;2023-04-25T08:40:33;935.8;;;19.2;61.1
40013;BME280;37387;42.672;23.334;2023-04-25T08:41:32;935.8;;;19.3;62.1
40013;BME280;37387;42.672;23.334;2023-04-25T08:42:33;935.9;;;19.1;62.5
40013;BME280;37387;42.672;23.334;2023-04-25T08:43:33;935.9;;;18.8;67.3
40013;BME280;37387;42.672;23.334;2023-04-25T08:44:33;935.9;;;18.1;71.0
40013;BME280;37387;42.672;23.334;2023-04-25T08:45:32;935.9;;;17.9;71.7
40013;BME280;37387;42.672;23.334;2023-04-25T08:46:32;935.9;;;17.8;76.2
40013;BME280;37387;42.672;23.334;2023-04-25T08:47:33;935.9;;;17.4;73.6
40013;BME280;37387;42.672;23.334;2023-04-25T08:48:33;935.9;;;17.6;73.9
40013;BME280;37387;42.672;23.334;2023-04-25T08:49:33;935.9;;;17.0;82.8
40013;BME280;37387;42.672;23.334;2023-04-25T08:50:32;935.9;;;16.8;82.8
40013;BME280;37387;42.672;23.334;2023-04-25T08:51:32;935.9;;;16.7;88.5
40013;BME280;37387;42.672;23.334;2023-04-25T08:52:35;935.9;;;16.6;88.5
40013;BME280;37387;42.672;23.334;2023-04-25T08:53:32;935.9;;;16.5;92.4
40013;BME280;37387;42.672;23.334;2023-04-25T08:55:32;935.9;;;16.2;93.3
40013;BME280;37387;42.672;23.334;2023-04-25T08:56:32;935.9;;;16.1;100.0
40013;BME280;37387;42.672;23.334;2023-04-25T08:58:32;935.8;;;16.4;100.0
40013;BME280;37387;42.672;23.334;2023-04-25T08:59:32;935.8;;;16.5;90.0
40013;BME280;37387;42.672;23.334;2023-04-25T09:00:32;935.9;;;17.0;92.2
40013;BME280;37387;42.672;23.334;2023-04-25T09:01:32;935.8;;;17.6;95.4
40013;BME280;37387;42.672;23.334;2023-04-25T09:02:32;935.7;;;18.5;78.6
40013;BME280;37387;42.672;23.334;2023-04-25T09:03:32;935.7;;;19.5;78.6
40013;BME280;37387;42.672;23.334;2023-04-25T09:04:32;935.8;;;20.3;68.5
40013;BME280;37387;42.672;23.334;2023-04-25T09:05:33;935.8;;;20.4;68.5
40013;BME280;37387;42.672;23.334;2023-04-25T09:06:32;935.8;;;20.7;67.9
40013;BME280;37387;42.672;23.334;2023-04-25T09:07:32;935.7;;;21.4;60.3
40013;BME280;37387;42.672;23.334;2023-04-25T09:08:33;935.7;;;21.5;60.3
40013;BME280;37387;42.672;23.334;2023-04-25T09:09:32;935.7;;;21.2;57.1
40013;BME280;37387;42.672;23.334;2023-04-25T09:10:33;935.7;;;20.9;58.3
40013;BME280;37387;42.672;23.334;2023-04-25T09:11:32;935.7;;;19.9;59.0
40013;BME280;37387;42.672;23.334;2023-04-25T09:12:32;935.6;;;19.7;57.8
40013;BME280;37387;42.672;23.334;2023-04-25T09:13:33;935.6;;;19.5;57.8
40013;BME280;37387;42.672;23.334;2023-04-25T09:14:32;935.6;;;19.0;61.4
40013;BME280;37387;42.672;23.334;2023-04-25T09:15:32;935.6;;;18.6;62.8
40013;BME280;37387;42.672;23.334;2023-04-25T09:16:32;935.6;;;18.5;65.1
40013;BME280;37387;42.672;23.334;2023-04-25T09:17:32;935.6;;;19.6;65.1
40013;BME280;37387;42.672;23.334;2023-04-25T09:18:34;935.6;;;20.0;63.3
40013;BME280;37387;42.672;23.334;2023-04-25T09:19:33;935.6;;;20.3;65.3
40013;BME280;37387;42.672;23.334;2023-04-25T09:20:32;935.6;;;20.6;65.3
40013;BME280;37387;42.672;23.334;2023-04-25T09:22:32;935.5;;;20.7;62.0
40013;BME280;37387;42.672;23.334;2023-04-25T09:23:38;935.5;;;20.5;63.2
40013;BME280;37387;42.672;23.334;2023-04-25T09:24:33;935.6;;;20.6;63.5
40013;BME280;37387;42.672;23.334;2023-04-25T09:25:34;935.6;;;20.8;63.9
40013;BME280;37387;42.672;23.334;2023-04-25T09:26:32;935.6;;;19.7;63.1
40013;BME280;37387;42.672;23.334;2023-04-25T09:27:32;935.6;;;19.2;66.2
40013;BME280;37387;42.672;23.334;2023-04-25T09:28:32;935.6;;;18.8;71.1
40013;BME280;37387;42.672;23.334;2023-04-25T09:29:33;935.6;;;18.7;69.9
40013;BME280;37387;42.672;23.334;2023-04-25T09:30:33;935.6;;;18.5;69.9
40013;BME280;37387;42.672;23.334;2023-04-25T09:32:32;935.5;;;18.2;70.2
40013;BME280;37387;42.672;23.334;2023-04-25T09:34:34;935.5;;;18.1;69.5
40013;BME280;37387;42.672;23.334;2023-04-25T09:35:36;935.5;;;17.9;69.9
40013;BME280;37387;42.672;23.334;2023-04-25T09:36:32;935.5;;;17.8;69.9